首页
METAR-TAF:

METAR-TAF

机场 :

喬治·布什洲際機場

休斯敦, 得克萨斯州, 美国

纬度: 29-59-33N, 经度: 095-21-50W, 海拔: 29米

当前天气观测

该预报发布于44分钟前的19:53 UTC
风速5节,风向多变
温度 14°C
湿度 24%
气压 1028 hPa
能見度: 16.1公里
天空无云

METAR: KIAH 271953Z VRB05KT 10SM CLR 14/M06 A3036 RMK AO2 SLP281 T01391056

时间: 14:37 (20:37 UTC)

预报

该预报发布于3小时和14分钟前的17:23 UTC
预报有效从27日的 18点(UTC)到 28日的 24点(UTC)
风速5节,风向西转西北
能見度: 10公里
天空无云
从 28日的 0000点(UTC)
风速3节,风向多变
能見度: 10公里
天空无云
从 28日的 1500点(UTC)
风速8节,风向西
能見度: 10公里
天空无云

TAF: KIAH 271723Z 2718/2824 30005KT P6SM SKC FM280000 VRB03KT P6SM SKC FM281500 28008KT P6SM SKC

超过4000个机场的气象观测和天气预报(METAR&TAF报告)。

可查询的气象台以黄色和红色小点在地图上表示。

将鼠标移到小点上方,可查看气象台名称。

然后点击查看天气观测和预报。

如需切换地图:点击带黑十字的绿色按钮放大地图;点击带横线的绿色按钮缩小地图;或者点击绿色箭头查看邻近地区的地图。


METAR-TAF: